createdAt,value
2023-01-21T00:01:54.612Z,-3.86
2023-01-21T00:04:21.125Z,-3.91
2023-01-21T00:06:47.686Z,-3.63
2023-01-21T00:09:15.014Z,-3.64
2023-01-21T00:11:41.453Z,-3.93
2023-01-21T00:14:08.046Z,-3.88
2023-01-21T00:16:34.487Z,-3.66
2023-01-21T00:19:00.965Z,-3.80
2023-01-21T00:21:27.429Z,-3.90
2023-01-21T00:23:54.024Z,-4.02
2023-01-21T00:26:21.991Z,-3.99
2023-01-21T00:28:48.476Z,-3.91
2023-01-21T00:31:16.991Z,-3.98
2023-01-21T00:33:43.551Z,-3.83
2023-01-21T00:36:10.815Z,-3.63
2023-01-21T00:38:37.335Z,-3.71
2023-01-21T00:41:08.602Z,-3.93
2023-01-21T00:43:35.589Z,-3.85
2023-01-21T00:46:04.079Z,-4.05
2023-01-21T00:48:30.598Z,-4.24
2023-01-21T00:51:00.566Z,-4.29
2023-01-21T00:53:27.892Z,-4.38
2023-01-21T00:55:54.428Z,-4.54
2023-01-21T00:58:20.898Z,-4.61
2023-01-21T01:00:47.441Z,-4.77
2023-01-21T01:03:13.943Z,-4.92
2023-01-21T01:05:40.593Z,-5.03
2023-01-21T01:08:07.077Z,-5.13
2023-01-21T01:10:35.591Z,-5.15
2023-01-21T01:13:02.136Z,-5.23
2023-01-21T01:15:28.582Z,-5.00
2023-01-21T01:17:55.168Z,-4.88
2023-01-21T01:20:21.665Z,-4.59
2023-01-21T01:22:48.128Z,-4.56
2023-01-21T01:25:14.628Z,-4.61
2023-01-21T01:27:41.831Z,-4.57
2023-01-21T01:30:08.445Z,-4.49
2023-01-21T01:32:34.908Z,-4.68
2023-01-21T01:35:01.415Z,-4.56
2023-01-21T01:37:27.849Z,-4.64
2023-01-21T01:39:54.323Z,-4.91
2023-01-21T01:42:23.334Z,-4.98
2023-01-21T01:44:57.344Z,-4.76
2023-01-21T01:47:28.928Z,-4.38
2023-01-21T01:49:55.955Z,-4.35
2023-01-21T01:52:22.857Z,-4.56
2023-01-21T01:54:51.770Z,-4.82
2023-01-21T01:57:20.574Z,-4.92
2023-01-21T01:59:49.436Z,-4.95
2023-01-21T02:02:18.055Z,-4.84
2023-01-21T02:04:47.425Z,-4.82
2023-01-21T02:07:14.712Z,-4.75
2023-01-21T02:09:41.173Z,-4.74
2023-01-21T02:12:09.975Z,-4.75
2023-01-21T02:14:42.817Z,-5.00
2023-01-21T02:17:12.051Z,-4.97
2023-01-21T02:19:46.813Z,-4.88
2023-01-21T02:22:16.051Z,-4.84
2023-01-21T02:25:01.571Z,-5.12
2023-01-21T02:27:43.543Z,-5.26
2023-01-21T02:30:17.177Z,-5.49
2023-01-21T02:33:13.632Z,-5.38
2023-01-21T02:35:40.067Z,-5.31
2023-01-21T02:38:18.122Z,-5.58
2023-01-21T02:40:57.310Z,-5.73
2023-01-21T02:43:38.308Z,-5.83
2023-01-21T02:46:09.527Z,-5.83
2023-01-21T02:48:40.095Z,-5.63
2023-01-21T02:51:06.686Z,-5.69
2023-01-21T02:53:34.150Z,-5.92
2023-01-21T02:56:12.925Z,-6.02
2023-01-21T02:58:42.018Z,-6.04
2023-01-21T03:01:08.523Z,-6.01
2023-01-21T03:03:41.561Z,-6.29
2023-01-21T03:06:28.451Z,-6.23
2023-01-21T03:09:20.999Z,-6.22
2023-01-21T03:11:58.553Z,-6.13
2023-01-21T03:14:57.815Z,-6.12
2023-01-21T03:17:32.344Z,-6.17
2023-01-21T03:20:11.065Z,-6.51
2023-01-21T03:22:38.902Z,-6.69
2023-01-21T03:25:06.624Z,-6.89
2023-01-21T03:27:34.360Z,-6.68
2023-01-21T03:30:03.888Z,-6.81
2023-01-21T03:32:32.907Z,-7.31
2023-01-21T03:35:01.723Z,-7.50
2023-01-21T03:37:33.932Z,-7.57
2023-01-21T03:40:06.985Z,-7.98
2023-01-21T03:42:33.646Z,-8.22
2023-01-21T03:45:00.296Z,-8.14
2023-01-21T03:47:31.827Z,-7.60
2023-01-21T03:49:58.431Z,-7.17
2023-01-21T03:52:26.029Z,-6.90
2023-01-21T03:54:52.671Z,-6.86
2023-01-21T03:57:19.291Z,-6.91
2023-01-21T03:59:45.843Z,-7.16
2023-01-21T04:02:12.462Z,-7.74
2023-01-21T04:04:38.920Z,-7.96
2023-01-21T04:07:05.384Z,-8.21
2023-01-21T04:09:31.851Z,-8.50
2023-01-21T04:12:00.397Z,-7.95
2023-01-21T04:14:26.952Z,-7.56
2023-01-21T04:16:53.453Z,-7.40
2023-01-21T04:19:19.930Z,-7.30
2023-01-21T04:21:46.417Z,-7.46
2023-01-21T04:24:12.977Z,-8.20
2023-01-21T04:26:41.076Z,-8.55
2023-01-21T04:29:07.602Z,-8.76
2023-01-21T04:31:34.102Z,-8.72
2023-01-21T04:34:00.639Z,-8.69
2023-01-21T04:36:27.444Z,-8.90
2023-01-21T04:38:53.980Z,-8.83
2023-01-21T04:41:25.149Z,-8.28
2023-01-21T04:43:54.191Z,-8.63
2023-01-21T04:46:20.717Z,-8.68
2023-01-21T04:48:47.176Z,-8.73
2023-01-21T04:51:13.737Z,-8.61
2023-01-21T04:53:40.377Z,-8.30
2023-01-21T04:56:06.951Z,-8.17
2023-01-21T04:58:33.551Z,-8.08
2023-01-21T05:01:00.118Z,-7.95
2023-01-21T05:03:27.844Z,-8.15
2023-01-21T05:05:54.459Z,-8.57
2023-01-21T05:08:20.942Z,-8.92
2023-01-21T05:10:47.379Z,-9.04
2023-01-21T05:13:16.032Z,-9.09
2023-01-21T05:15:44.399Z,-9.13
2023-01-21T05:18:10.883Z,-9.12
2023-01-21T05:20:37.361Z,-9.16
2023-01-21T05:23:03.887Z,-9.21
2023-01-21T05:25:30.409Z,-9.18
2023-01-21T05:27:56.919Z,-9.06
2023-01-21T05:30:24.132Z,-8.85
2023-01-21T05:32:51.560Z,-8.86
2023-01-21T05:35:20.151Z,-9.14
2023-01-21T05:37:47.874Z,-8.82
2023-01-21T05:40:18.020Z,-9.23
2023-01-21T05:42:44.648Z,-10.07
2023-01-21T05:45:11.849Z,-10.42
2023-01-21T05:47:38.315Z,-10.44
2023-01-21T05:50:05.043Z,-10.64
2023-01-21T05:52:31.481Z,-10.75
2023-01-21T05:55:02.274Z,-10.55
2023-01-21T05:57:29.183Z,-10.61
2023-01-21T05:59:55.662Z,-9.80
2023-01-21T06:02:22.434Z,-9.52
2023-01-21T06:04:48.970Z,-10.04
2023-01-21T06:07:15.486Z,-10.30
2023-01-21T06:09:41.939Z,-10.48
2023-01-21T06:12:08.476Z,-10.76
2023-01-21T06:14:34.924Z,-10.93
2023-01-21T06:17:01.388Z,-10.53
2023-01-21T06:19:27.880Z,-10.05
2023-01-21T06:21:54.347Z,-10.49
2023-01-21T06:24:20.789Z,-10.35
2023-01-21T06:26:47.294Z,-10.07
2023-01-21T06:29:14.485Z,-10.39
2023-01-21T06:31:41.326Z,-10.21
2023-01-21T06:34:12.869Z,-9.78
2023-01-21T06:36:40.953Z,-9.51
2023-01-21T06:39:07.439Z,-9.82
2023-01-21T06:41:34.870Z,-9.58
2023-01-21T06:44:01.333Z,-9.59
2023-01-21T06:46:27.891Z,-9.95
2023-01-21T06:48:54.489Z,-10.16
2023-01-21T06:51:21.636Z,-10.44
2023-01-21T06:53:48.116Z,-10.48
2023-01-21T06:56:14.559Z,-10.38
2023-01-21T06:58:41.028Z,-10.88
2023-01-21T07:01:07.492Z,-10.79
2023-01-21T07:03:33.984Z,-10.26
2023-01-21T07:06:00.467Z,-10.02
2023-01-21T07:08:27.009Z,-10.58
2023-01-21T07:10:53.447Z,-10.82
2023-01-21T07:13:19.945Z,-10.97
2023-01-21T07:15:46.462Z,-10.83
2023-01-21T07:18:12.929Z,-11.03
2023-01-21T07:20:40.931Z,-10.80
2023-01-21T07:23:07.481Z,-10.39
2023-01-21T07:25:36.153Z,-10.85
2023-01-21T07:28:03.295Z,-10.87
2023-01-21T07:30:29.767Z,-10.37
2023-01-21T07:32:56.206Z,-10.25
2023-01-21T07:35:22.723Z,-10.65
2023-01-21T07:37:49.315Z,-10.87
2023-01-21T07:40:15.856Z,-11.00
2023-01-21T07:42:42.308Z,-11.03
2023-01-21T07:45:08.973Z,-11.00
2023-01-21T07:47:35.769Z,-10.99
2023-01-21T07:50:05.107Z,-10.98
2023-01-21T07:52:32.000Z,-11.03
2023-01-21T07:54:58.500Z,-10.96
2023-01-21T07:57:27.285Z,-10.55
2023-01-21T07:59:53.791Z,-10.49
2023-01-21T08:02:20.381Z,-10.20
2023-01-21T08:04:47.525Z,-10.35
2023-01-21T08:07:13.998Z,-10.59
2023-01-21T08:09:42.701Z,-10.66
2023-01-21T08:12:09.693Z,-10.68
2023-01-21T08:14:38.531Z,-10.71
2023-01-21T08:17:05.041Z,-11.11
2023-01-21T08:19:31.492Z,-11.20
2023-01-21T08:21:57.996Z,-11.66
2023-01-21T08:24:24.447Z,-11.77
2023-01-21T08:26:50.999Z,-11.72
2023-01-21T08:29:17.474Z,-11.71
2023-01-21T08:31:44.035Z,-11.39
2023-01-21T08:34:10.553Z,-10.64
2023-01-21T08:36:39.009Z,-10.40
2023-01-21T08:39:08.528Z,-10.67
2023-01-21T08:41:35.099Z,-10.52
2023-01-21T08:44:01.602Z,-10.22
2023-01-21T08:46:28.143Z,-10.25
2023-01-21T08:48:54.626Z,-9.99
2023-01-21T08:51:21.120Z,-9.61
2023-01-21T08:53:48.787Z,-9.77
2023-01-21T08:56:15.336Z,-9.79
2023-01-21T08:58:41.870Z,-9.52
2023-01-21T09:01:09.824Z,-9.19
2023-01-21T09:03:36.488Z,-9.07
2023-01-21T09:06:04.080Z,-8.86
2023-01-21T09:08:30.672Z,-9.25
2023-01-21T09:11:03.993Z,-9.95
2023-01-21T09:13:31.604Z,-9.84
2023-01-21T09:15:58.187Z,-9.33
2023-01-21T09:18:24.849Z,-8.84
2023-01-21T09:20:51.480Z,-8.69
2023-01-21T09:23:27.647Z,-8.66
2023-01-21T09:25:54.095Z,-8.64
2023-01-21T09:28:21.241Z,-8.64
2023-01-21T09:30:48.629Z,-8.82
2023-01-21T09:33:15.574Z,-9.35
2023-01-21T09:35:42.067Z,-9.59
2023-01-21T09:38:08.572Z,-9.63
2023-01-21T09:40:35.448Z,-9.57
2023-01-21T09:43:09.591Z,-9.23
2023-01-21T09:45:36.478Z,-8.35
2023-01-21T09:48:04.119Z,-8.61
2023-01-21T09:50:32.011Z,-8.86
2023-01-21T09:53:07.842Z,-8.57
2023-01-21T09:55:34.253Z,-8.59
2023-01-21T09:58:12.021Z,-8.62
2023-01-21T10:00:50.709Z,-8.40
2023-01-21T10:03:21.611Z,-8.38
2023-01-21T10:06:17.332Z,-8.20
2023-01-21T10:08:43.778Z,-7.98
2023-01-21T10:11:35.299Z,-7.70
2023-01-21T10:14:20.695Z,-7.33
2023-01-21T10:17:03.960Z,-7.15
2023-01-21T10:19:33.653Z,-7.02
2023-01-21T10:22:08.811Z,-6.80
2023-01-21T10:24:38.828Z,-6.72
2023-01-21T10:27:11.383Z,-6.34
2023-01-21T10:29:41.670Z,-6.17
2023-01-21T10:32:13.380Z,-6.07
2023-01-21T10:34:45.089Z,-6.22
2023-01-21T10:37:17.824Z,-6.70
2023-01-21T10:40:07.569Z,-6.72
2023-01-21T10:43:06.568Z,-6.74
2023-01-21T10:45:35.872Z,-6.51
2023-01-21T10:48:21.211Z,-6.38
2023-01-21T10:50:52.421Z,-6.00
2023-01-21T10:53:29.025Z,-6.32
2023-01-21T10:56:14.260Z,-6.46
2023-01-21T10:58:46.882Z,-6.48
2023-01-21T11:01:20.853Z,-6.50
2023-01-21T11:03:50.841Z,-6.22
2023-01-21T11:06:18.591Z,-6.13
2023-01-21T11:08:48.720Z,-6.07
2023-01-21T11:11:19.181Z,-5.83
2023-01-21T11:13:47.696Z,-5.65
2023-01-21T11:16:15.202Z,-5.67
2023-01-21T11:18:44.058Z,-5.66
2023-01-21T11:21:23.595Z,-5.61
2023-01-21T11:23:57.108Z,-5.72
2023-01-21T11:26:31.821Z,-5.62
2023-01-21T11:29:07.231Z,-5.79
2023-01-21T11:31:33.995Z,-5.76
2023-01-21T11:34:07.835Z,-5.74
2023-01-21T11:36:34.483Z,-6.01
2023-01-21T11:39:02.324Z,-6.25
2023-01-21T11:41:28.974Z,-6.33
2023-01-21T11:44:07.094Z,-6.40
2023-01-21T11:46:36.794Z,-6.44
2023-01-21T11:49:09.115Z,-6.47
2023-01-21T11:51:36.757Z,-6.52
2023-01-21T11:54:12.264Z,-6.45
2023-01-21T11:56:40.072Z,-6.21
2023-01-21T11:59:35.840Z,-6.37
2023-01-21T12:02:05.330Z,-6.43
2023-01-21T12:04:32.605Z,-6.44
2023-01-21T12:07:00.559Z,-6.46
2023-01-21T12:09:28.888Z,-6.50
2023-01-21T12:12:04.516Z,-6.48
2023-01-21T12:14:35.354Z,-6.41
2023-01-21T12:17:22.013Z,-6.40
2023-01-21T12:19:51.909Z,-6.35
2023-01-21T12:22:31.645Z,-6.29
2023-01-21T12:25:04.124Z,-6.22
2023-01-21T12:27:33.973Z,-6.18
2023-01-21T12:30:07.433Z,-6.20
2023-01-21T12:32:38.474Z,-6.16
2023-01-21T12:35:31.299Z,-6.11
2023-01-21T12:38:05.046Z,-6.07
2023-01-21T12:40:37.035Z,-6.04
2023-01-21T12:43:08.441Z,-5.96
2023-01-21T12:45:41.507Z,-5.75
2023-01-21T12:48:15.809Z,-5.44
2023-01-21T12:50:57.882Z,-5.62
2023-01-21T12:53:38.672Z,-5.58
2023-01-21T12:56:05.528Z,-5.42
2023-01-21T12:58:38.153Z,-5.24
2023-01-21T13:01:07.817Z,-5.14
2023-01-21T13:03:53.204Z,-5.09
2023-01-21T13:06:37.929Z,-4.98
2023-01-21T13:09:30.118Z,-4.90
2023-01-21T13:12:11.325Z,-5.03
2023-01-21T13:14:40.387Z,-5.41
2023-01-21T13:17:14.395Z,-5.77
2023-01-21T13:19:40.854Z,-6.18
2023-01-21T13:22:22.320Z,-6.37
2023-01-21T13:24:54.800Z,-6.41
2023-01-21T13:27:21.279Z,-6.45
2023-01-21T13:29:48.769Z,-6.29
2023-01-21T13:32:18.496Z,-6.13
2023-01-21T13:34:53.837Z,-6.26
2023-01-21T13:37:37.386Z,-6.03
2023-01-21T13:40:22.430Z,-6.16
2023-01-21T13:42:54.980Z,-5.95
2023-01-21T13:45:39.719Z,-6.19
2023-01-21T13:48:06.261Z,-6.18
2023-01-21T13:50:48.905Z,-6.07
2023-01-21T13:53:27.426Z,-6.05
2023-01-21T13:56:06.116Z,-6.03
2023-01-21T13:58:34.275Z,-5.99
2023-01-21T14:01:07.988Z,-5.99
2023-01-21T14:03:34.491Z,-6.07
2023-01-21T14:06:08.384Z,-6.05
2023-01-21T14:08:37.688Z,-5.97
2023-01-21T14:11:15.170Z,-6.28
2023-01-21T14:13:50.841Z,-6.68
2023-01-21T14:16:29.651Z,-6.35
2023-01-21T14:19:10.148Z,-6.64
2023-01-21T14:21:51.841Z,-6.48
2023-01-21T14:24:26.783Z,-6.55
2023-01-21T14:26:57.078Z,-6.44
2023-01-21T14:29:32.647Z,-6.41
2023-01-21T14:32:02.226Z,-6.64
2023-01-21T14:34:41.232Z,-7.40
2023-01-21T14:37:11.943Z,-7.72
2023-01-21T14:39:41.260Z,-7.63
2023-01-21T14:42:09.410Z,-7.59
2023-01-21T14:44:38.017Z,-8.02
2023-01-21T14:47:39.972Z,-8.19
2023-01-21T14:50:07.604Z,-8.37
2023-01-21T14:52:46.564Z,-7.79
2023-01-21T14:55:42.520Z,-7.52
2023-01-21T14:58:26.632Z,-7.48
2023-01-21T15:00:53.946Z,-7.22
2023-01-21T15:03:27.161Z,-7.62
2023-01-21T15:06:02.290Z,-7.96
2023-01-21T15:08:45.435Z,-8.48
2023-01-21T15:11:32.530Z,-8.63
2023-01-21T15:14:07.484Z,-8.98
2023-01-21T15:16:35.306Z,-9.22
2023-01-21T15:19:08.047Z,-9.22
2023-01-21T15:21:43.597Z,-9.05
2023-01-21T15:24:19.475Z,-8.74
2023-01-21T15:27:04.143Z,-8.85
2023-01-21T15:29:37.897Z,-9.37
2023-01-21T15:32:23.104Z,-9.12
2023-01-21T15:34:51.540Z,-9.55
2023-01-21T15:37:20.913Z,-9.77
2023-01-21T15:39:48.876Z,-9.54
2023-01-21T15:42:22.414Z,-9.18
2023-01-21T15:44:57.824Z,-9.21
2023-01-21T15:47:30.351Z,-9.02
2023-01-21T15:50:06.204Z,-9.44
2023-01-21T15:52:42.108Z,-9.80
2023-01-21T15:55:26.812Z,-9.65
2023-01-21T15:58:12.040Z,-9.64
2023-01-21T16:00:47.749Z,-9.51
2023-01-21T16:03:49.850Z,-9.57
2023-01-21T16:06:23.109Z,-9.44
2023-01-21T16:09:13.496Z,-9.59
2023-01-21T16:11:40.675Z,-9.82
2023-01-21T16:14:19.292Z,-9.99
2023-01-21T16:16:56.676Z,-9.90
2023-01-21T16:19:26.471Z,-9.78
2023-01-21T16:21:56.619Z,-9.54
2023-01-21T16:24:26.145Z,-9.74
2023-01-21T16:26:52.648Z,-9.71
2023-01-21T16:29:19.932Z,-9.94
2023-01-21T16:31:47.054Z,-10.03
2023-01-21T16:34:14.132Z,-10.05
2023-01-21T16:36:40.878Z,-9.99
2023-01-21T16:39:09.037Z,-9.99
2023-01-21T16:41:35.797Z,-10.19
2023-01-21T16:44:04.492Z,-10.26
2023-01-21T16:46:37.515Z,-10.28
2023-01-21T16:49:06.139Z,-10.19
2023-01-21T16:51:36.479Z,-10.13
2023-01-21T16:54:35.923Z,-10.58
2023-01-21T16:57:03.876Z,-10.96
2023-01-21T16:59:40.929Z,-11.03
2023-01-21T17:02:27.122Z,-10.89
2023-01-21T17:04:57.872Z,-10.57
2023-01-21T17:07:31.690Z,-10.39
2023-01-21T17:10:04.519Z,-10.17
2023-01-21T17:12:33.627Z,-10.73
2023-01-21T17:15:02.711Z,-10.47
2023-01-21T17:17:31.925Z,-10.61
2023-01-21T17:19:58.610Z,-10.91
2023-01-21T17:22:26.629Z,-11.16
2023-01-21T17:25:22.369Z,-11.31
2023-01-21T17:27:49.648Z,-11.07
2023-01-21T17:30:18.811Z,-11.21
2023-01-21T17:32:52.467Z,-11.09
2023-01-21T17:35:23.001Z,-11.34
2023-01-21T17:37:49.795Z,-11.67
2023-01-21T17:40:26.756Z,-11.29
2023-01-21T17:42:53.711Z,-10.92
2023-01-21T17:45:28.553Z,-11.30
2023-01-21T17:48:08.265Z,-11.34
2023-01-21T17:50:36.252Z,-11.55
2023-01-21T17:53:04.283Z,-11.46
2023-01-21T17:55:32.591Z,-11.73
2023-01-21T17:58:04.488Z,-11.87
2023-01-21T18:00:31.025Z,-12.09
2023-01-21T18:02:57.800Z,-11.83
2023-01-21T18:05:24.316Z,-11.97
2023-01-21T18:07:50.841Z,-12.22
2023-01-21T18:10:18.760Z,-12.17
2023-01-21T18:12:45.324Z,-12.14
2023-01-21T18:15:15.402Z,-11.66
2023-01-21T18:17:47.015Z,-11.54
2023-01-21T18:20:17.888Z,-11.62
2023-01-21T18:22:45.088Z,-11.09
2023-01-21T18:25:12.915Z,-10.85
2023-01-21T18:27:40.949Z,-11.20
2023-01-21T18:30:26.872Z,-11.48
2023-01-21T18:32:53.722Z,-11.75
2023-01-21T18:35:25.789Z,-12.12
2023-01-21T18:37:54.536Z,-12.22
2023-01-21T18:40:22.557Z,-12.28
2023-01-21T18:42:53.012Z,-12.42
2023-01-21T18:45:20.918Z,-12.39
2023-01-21T18:47:48.653Z,-12.41
2023-01-21T18:50:19.693Z,-12.28
2023-01-21T18:52:46.181Z,-12.34
2023-01-21T18:55:15.934Z,-12.29
2023-01-21T18:57:44.123Z,-12.37
2023-01-21T19:00:14.854Z,-12.06
2023-01-21T19:02:41.359Z,-12.04
2023-01-21T19:05:07.967Z,-11.98
2023-01-21T19:07:34.481Z,-12.10
2023-01-21T19:10:00.996Z,-12.10
2023-01-21T19:12:27.537Z,-11.98
2023-01-21T19:14:54.068Z,-12.36
2023-01-21T19:17:28.527Z,-12.64
2023-01-21T19:19:55.444Z,-12.26
2023-01-21T19:22:22.229Z,-12.15
2023-01-21T19:24:49.218Z,-11.96
2023-01-21T19:27:33.913Z,-12.27
2023-01-21T19:30:01.120Z,-12.32
2023-01-21T19:32:27.695Z,-11.84
2023-01-21T19:34:55.798Z,-11.67
2023-01-21T19:37:23.520Z,-12.33
2023-01-21T19:39:52.044Z,-12.45
2023-01-21T19:42:18.489Z,-12.60
2023-01-21T19:44:47.133Z,-12.50
2023-01-21T19:47:23.793Z,-12.73
2023-01-21T19:49:50.827Z,-13.12
2023-01-21T19:52:17.286Z,-12.67
2023-01-21T19:54:43.844Z,-12.27
2023-01-21T19:57:14.468Z,-12.29
2023-01-21T19:59:41.902Z,-12.35
2023-01-21T20:02:09.866Z,-12.58
2023-01-21T20:04:36.621Z,-12.73
2023-01-21T20:07:03.282Z,-12.84
2023-01-21T20:09:29.776Z,-12.98
2023-01-21T20:11:56.424Z,-12.45
2023-01-21T20:14:22.940Z,-12.06
2023-01-21T20:16:51.248Z,-12.53
2023-01-21T20:19:20.171Z,-12.95
2023-01-21T20:22:00.445Z,-13.09
2023-01-21T20:24:30.222Z,-13.36
2023-01-21T20:26:58.444Z,-13.43
2023-01-21T20:29:26.981Z,-13.56
2023-01-21T20:31:54.538Z,-13.31
2023-01-21T20:34:21.151Z,-13.08
2023-01-21T20:36:49.641Z,-13.27
2023-01-21T20:39:16.255Z,-13.29
2023-01-21T20:41:43.465Z,-13.38
2023-01-21T20:44:10.452Z,-13.54
2023-01-21T20:46:37.094Z,-13.38
2023-01-21T20:49:03.591Z,-13.44
2023-01-21T20:51:30.243Z,-13.50
2023-01-21T20:53:56.719Z,-13.52
2023-01-21T20:56:30.794Z,-13.44
2023-01-21T20:58:57.564Z,-12.92
2023-01-21T21:01:25.106Z,-12.38
2023-01-21T21:03:52.147Z,-12.09
2023-01-21T21:06:20.409Z,-12.47
2023-01-21T21:08:47.686Z,-12.63
2023-01-21T21:11:15.104Z,-13.03
2023-01-21T21:13:41.933Z,-13.21
2023-01-21T21:16:18.807Z,-13.22
2023-01-21T21:18:45.685Z,-13.07
2023-01-21T21:21:12.672Z,-12.61
2023-01-21T21:23:39.237Z,-12.40
2023-01-21T21:26:12.775Z,-12.86
2023-01-21T21:28:39.856Z,-13.15
2023-01-21T21:31:08.180Z,-13.21
2023-01-21T21:33:36.518Z,-13.15
2023-01-21T21:36:05.079Z,-13.21
2023-01-21T21:38:31.517Z,-13.26
2023-01-21T21:41:17.941Z,-12.69
2023-01-21T21:43:44.379Z,-12.70
2023-01-21T21:46:31.445Z,-12.40
2023-01-21T21:48:58.011Z,-12.68
2023-01-21T21:51:24.652Z,-12.75
2023-01-21T21:53:51.388Z,-12.98
2023-01-21T21:56:19.822Z,-13.18
2023-01-21T21:58:46.864Z,-12.98
2023-01-21T22:01:23.559Z,-12.88
2023-01-21T22:03:50.747Z,-12.85
2023-01-21T22:06:18.216Z,-12.79
2023-01-21T22:08:44.738Z,-12.99
2023-01-21T22:11:15.761Z,-13.43
2023-01-21T22:13:43.540Z,-13.59
2023-01-21T22:16:12.050Z,-13.47
2023-01-21T22:18:38.784Z,-12.74
2023-01-21T22:21:06.643Z,-12.37
2023-01-21T22:23:36.239Z,-12.83
2023-01-21T22:26:05.304Z,-13.18
2023-01-21T22:28:33.452Z,-13.23
2023-01-21T22:31:04.187Z,-13.33
2023-01-21T22:33:31.382Z,-13.56
2023-01-21T22:35:57.994Z,-13.97
2023-01-21T22:38:24.539Z,-13.80
2023-01-21T22:40:54.296Z,-14.01
2023-01-21T22:43:23.722Z,-14.25
2023-01-21T22:45:51.860Z,-13.86
2023-01-21T22:48:18.358Z,-14.36
2023-01-21T22:50:46.759Z,-14.01
2023-01-21T22:53:13.489Z,-13.49
2023-01-21T22:55:39.999Z,-13.31
2023-01-21T22:58:08.460Z,-13.29
2023-01-21T23:00:39.195Z,-13.57
2023-01-21T23:03:06.256Z,-13.26
2023-01-21T23:05:33.205Z,-12.84
2023-01-21T23:10:26.200Z,-13.49
2023-01-21T23:12:52.731Z,-13.89
2023-01-21T23:15:19.284Z,-14.18
2023-01-21T23:17:45.782Z,-14.06
2023-01-21T23:20:12.308Z,-13.76
2023-01-21T23:22:39.088Z,-14.19
2023-01-21T23:25:06.101Z,-14.46
2023-01-21T23:27:33.182Z,-14.63
2023-01-21T23:30:00.372Z,-14.33
2023-01-21T23:32:28.571Z,-13.82
2023-01-21T23:34:56.965Z,-13.16
2023-01-21T23:37:23.450Z,-12.82
2023-01-21T23:39:52.164Z,-12.67
2023-01-21T23:42:19.449Z,-13.48
2023-01-21T23:44:45.981Z,-13.46
2023-01-21T23:47:12.416Z,-12.98
2023-01-21T23:49:38.942Z,-13.09
2023-01-21T23:52:06.550Z,-13.85
2023-01-21T23:54:33.041Z,-14.04
2023-01-21T23:56:59.525Z,-14.12
2023-01-21T23:59:26.229Z,-13.98
